Pagrindinis puslapis
METAR-TAF:

METAR-TAF

Oro uostai :

Andersen, Guamas, Jungtinės Amerikos Valstijos

platuma: 13-35N, ilguma: 144-56E, Aukštis: 187 m

Dabartinis oras

Ataskaita buvo paskelbta 36 minutes, ne 08:55 UTC
Vėjas 11 kt iš Rytų
Temperatūra 28°C
Drėgmė 84%
Slėgis 1012 hPa
Matomumas: 14.5 km
Išsisklaidę debesys ne aukštis 1500 ft
Išsisklaidę debesys ne aukštis 2000 ft

METAR: PGUA 220855Z AUTO 09011KT 9SM SCT015 SCT020 28/25 A2988 RMK AO2 SLP109 T02800246 53006 $

Laikas: 19:31 (09:31 UTC)

Prognozė

Ataskaita buvo paskelbta 7 valandos ir 31 minutes, ne 02:00 UTC
Prognozė galioja nuo 22 metu 02 UTC su 23 metu 08 UTC
Vėjas 12 kt iš Rytų/Pietryčių su gūsio iki 18 kt
Matomumas 10 km arba daugiau
Išsisklaidę debesys ne aukštis 1500 ft
Laikinai
nuo 22 metu 18 UTC su 22 metu 23 UTC
Vėjas 15 kt iš Pietryčių su gūsio iki 20 kt
Matomumas: 6000 m
Su prošvaistėmis ne aukštis 1200 ft
lietus,

TAF: PGUA 220200Z 2202/2308 12012G18KT 9999 SCT015 QNH2994INS TEMPO 2218/2223 13015G20KT 6000 -SHRA BKN012 TX31/2202Z TN26/2220Z

Orai ataskaitas ir orų prognozės (METAR, TAF).

turimą stotys yra geltonos ir raudonos taškus žemėlapyje.

Perkelti pele per norėdami pamatyti stoties vardą.

Tada spustelėkite, norėdami matyti oro stebėjimo ir prognozės.

Norėdami pakeisti žemėlapį: spustelėkite ant žalios mygtukų su juodo kryžiaus žemyn,; žalią mygtuką su brūkšneliu, jei norite nutolinti; arba žalių rodyklių gretimoms žemėlapius.


METAR-TAF: